createdAt,value
2019-02-02T00:00:35.258Z,4.60
2019-02-02T00:03:06.690Z,4.60
2019-02-02T00:05:36.978Z,4.50
2019-02-02T00:08:07.785Z,4.60
2019-02-02T00:10:37.859Z,4.60
2019-02-02T00:13:08.513Z,4.60
2019-02-02T00:15:39.704Z,4.60
2019-02-02T00:18:09.894Z,4.70
2019-02-02T00:20:40.032Z,4.70
2019-02-02T00:23:10.118Z,4.70
2019-02-02T00:25:40.211Z,4.70
2019-02-02T00:28:10.348Z,4.80
2019-02-02T00:30:40.765Z,4.80
2019-02-02T00:33:10.892Z,4.80
2019-02-02T00:35:41.464Z,4.80
2019-02-02T00:38:13.120Z,4.90
2019-02-02T00:40:43.200Z,4.90
2019-02-02T00:43:13.308Z,5.00
2019-02-02T00:45:43.453Z,5.00
2019-02-02T00:48:13.650Z,5.00
2019-02-02T00:50:43.815Z,5.00
2019-02-02T00:53:14.301Z,5.10
2019-02-02T00:55:44.355Z,5.10
2019-02-02T00:58:14.712Z,5.10
2019-02-02T01:00:45.154Z,5.10
2019-02-02T01:03:17.237Z,5.10
2019-02-02T01:05:47.322Z,5.10
2019-02-02T01:08:17.648Z,5.00
2019-02-02T01:10:47.767Z,5.00
2019-02-02T01:13:18.383Z,5.00
2019-02-02T01:15:48.569Z,5.00
2019-02-02T01:18:19.369Z,5.10
2019-02-02T01:20:52.561Z,5.10
2019-02-02T01:23:24.025Z,5.10
2019-02-02T01:25:54.371Z,5.00
2019-02-02T01:28:24.796Z,5.00
2019-02-02T01:30:55.028Z,4.90
2019-02-02T01:33:26.968Z,4.90
2019-02-02T01:35:57.999Z,4.90
2019-02-02T01:38:28.752Z,5.00
2019-02-02T01:40:58.840Z,5.00
2019-02-02T01:43:29.499Z,5.00
2019-02-02T01:45:59.635Z,3.40
2019-02-02T01:48:29.932Z,5.00
2019-02-02T01:51:00.073Z,5.00
2019-02-02T01:53:30.654Z,5.00
2019-02-02T01:56:01.792Z,5.10
2019-02-02T01:58:32.176Z,5.10
2019-02-02T02:01:02.454Z,5.20
2019-02-02T02:03:32.496Z,5.10
2019-02-02T02:06:02.708Z,5.10
2019-02-02T02:08:32.832Z,5.20
2019-02-02T02:11:03.443Z,5.20
2019-02-02T02:13:33.932Z,5.10
2019-02-02T02:16:04.463Z,5.10
2019-02-02T02:18:34.653Z,5.10
2019-02-02T02:21:05.008Z,5.10
2019-02-02T02:23:35.105Z,5.10
2019-02-02T02:26:05.240Z,5.10
2019-02-02T02:28:35.628Z,5.20
2019-02-02T02:31:05.828Z,4.60
2019-02-02T02:33:36.272Z,5.20
2019-02-02T02:36:06.415Z,5.20
2019-02-02T02:38:36.866Z,5.20
2019-02-02T02:41:07.081Z,5.20
2019-02-02T02:43:37.188Z,5.20
2019-02-02T02:46:07.276Z,5.20
2019-02-02T02:48:37.784Z,5.10
2019-02-02T02:51:08.929Z,5.10
2019-02-02T02:53:39.256Z,5.20
2019-02-02T02:56:09.425Z,5.10
2019-02-02T02:58:41.898Z,5.10
2019-02-02T03:01:12.436Z,5.10
2019-02-02T03:03:42.506Z,5.10
2019-02-02T03:06:12.685Z,5.10
2019-02-02T03:08:42.825Z,5.80
2019-02-02T03:11:13.010Z,5.30
2019-02-02T03:13:43.127Z,5.30
2019-02-02T03:16:13.343Z,5.20
2019-02-02T03:18:43.420Z,5.30
2019-02-02T03:21:13.653Z,5.30
2019-02-02T03:23:43.696Z,5.30
2019-02-02T03:26:13.890Z,5.40
2019-02-02T03:28:53.213Z,5.40
2019-02-02T03:31:16.109Z,5.50
2019-02-02T03:33:46.681Z,5.50
2019-02-02T03:36:17.421Z,5.50
2019-02-02T03:38:47.596Z,5.60
2019-02-02T03:41:17.725Z,5.60
2019-02-02T03:43:48.162Z,5.60
2019-02-02T03:46:20.003Z,5.50
2019-02-02T03:48:50.140Z,5.60
2019-02-02T03:51:20.341Z,5.50
2019-02-02T03:53:50.769Z,5.60
2019-02-02T03:56:20.897Z,5.60
2019-02-02T03:58:51.375Z,5.50
2019-02-02T04:01:22.147Z,5.50
2019-02-02T04:03:52.235Z,5.50
2019-02-02T04:06:22.760Z,5.50
2019-02-02T04:08:53.231Z,5.40
2019-02-02T04:11:23.271Z,5.40
2019-02-02T04:13:53.400Z,5.30
2019-02-02T04:16:23.895Z,5.30
2019-02-02T04:18:54.071Z,5.30
2019-02-02T04:21:24.347Z,5.20
2019-02-02T04:23:58.197Z,5.30
2019-02-02T04:26:28.374Z,5.30
2019-02-02T04:28:59.139Z,5.20
2019-02-02T04:31:29.327Z,5.30
2019-02-02T04:34:00.428Z,5.30
2019-02-02T04:36:30.510Z,5.30
2019-02-02T04:39:01.009Z,5.50
2019-02-02T04:41:32.723Z,5.40
2019-02-02T04:44:03.148Z,5.40
2019-02-02T04:46:35.176Z,5.50
2019-02-02T04:49:05.275Z,5.50
2019-02-02T04:51:38.651Z,5.60
2019-02-02T04:54:10.892Z,5.60
2019-02-02T04:56:41.045Z,5.70
2019-02-02T04:59:15.445Z,5.70
2019-02-02T05:01:46.079Z,5.80
2019-02-02T05:04:16.705Z,5.80
2019-02-02T05:06:47.313Z,5.80
2019-02-02T05:09:17.877Z,5.80
2019-02-02T05:11:48.311Z,5.80
2019-02-02T05:14:18.881Z,5.80
2019-02-02T05:16:49.033Z,5.80
2019-02-02T05:19:19.124Z,5.80
2019-02-02T05:21:49.283Z,5.70
2019-02-02T05:24:20.502Z,5.60
2019-02-02T05:26:50.653Z,5.50
2019-02-02T05:29:20.728Z,5.50
2019-02-02T05:31:50.982Z,5.40
2019-02-02T05:34:21.036Z,5.40
2019-02-02T05:36:51.195Z,5.40
2019-02-02T05:39:21.632Z,5.40
2019-02-02T05:41:51.648Z,5.40
2019-02-02T05:44:21.762Z,5.30
2019-02-02T05:46:51.889Z,5.20
2019-02-02T05:49:21.937Z,5.30
2019-02-02T05:51:52.353Z,5.30
2019-02-02T05:54:22.443Z,5.30
2019-02-02T05:56:53.191Z,5.40
2019-02-02T05:59:23.296Z,5.50
2019-02-02T06:01:53.468Z,5.50
2019-02-02T06:04:23.644Z,5.50
2019-02-02T06:06:54.133Z,5.50
2019-02-02T06:09:24.588Z,5.40
2019-02-02T06:11:54.937Z,5.40
2019-02-02T06:14:25.048Z,5.40
2019-02-02T06:16:55.476Z,5.40
2019-02-02T06:19:25.726Z,5.30
2019-02-02T06:21:56.032Z,5.30
2019-02-02T06:24:26.592Z,5.30
2019-02-02T06:27:02.675Z,5.20
2019-02-02T06:29:33.443Z,5.20
2019-02-02T06:32:11.577Z,5.20
2019-02-02T06:34:35.706Z,5.20
2019-02-02T06:37:05.930Z,5.20
2019-02-02T06:39:35.979Z,5.60
2019-02-02T06:42:06.203Z,5.20
2019-02-02T06:44:37.132Z,5.20
2019-02-02T06:47:07.434Z,5.20
2019-02-02T06:49:39.197Z,5.30
2019-02-02T06:52:10.284Z,5.20
2019-02-02T06:54:40.412Z,5.20
2019-02-02T06:57:12.923Z,5.30
2019-02-02T06:59:43.541Z,5.20
2019-02-02T07:02:17.391Z,5.30
2019-02-02T07:04:47.904Z,5.30
2019-02-02T07:07:19.444Z,5.30
2019-02-02T07:09:51.573Z,5.40
2019-02-02T07:12:21.847Z,5.40
2019-02-02T07:14:53.576Z,5.40
2019-02-02T07:17:23.768Z,5.40
2019-02-02T07:19:53.882Z,5.60
2019-02-02T07:22:25.591Z,5.60
2019-02-02T07:24:56.053Z,5.60
2019-02-02T07:27:26.214Z,5.60
2019-02-02T07:29:56.744Z,5.60
2019-02-02T07:32:26.911Z,5.60
2019-02-02T07:34:57.331Z,5.50
2019-02-02T07:37:27.664Z,6.30
2019-02-02T07:39:59.353Z,5.50
2019-02-02T07:42:29.652Z,5.50
2019-02-02T07:44:59.905Z,5.50
2019-02-02T07:47:31.460Z,5.50
2019-02-02T07:50:02.729Z,5.50
2019-02-02T07:52:32.927Z,5.50
2019-02-02T07:55:03.107Z,5.50
2019-02-02T07:57:33.254Z,5.50
2019-02-02T08:00:04.499Z,5.50
2019-02-02T08:02:34.895Z,5.50
2019-02-02T08:05:05.751Z,5.50
2019-02-02T08:07:35.969Z,5.50
2019-02-02T08:10:08.617Z,5.50
2019-02-02T08:12:39.898Z,5.50
2019-02-02T08:15:13.719Z,5.50
2019-02-02T08:17:43.929Z,5.60
2019-02-02T08:20:14.295Z,5.60
2019-02-02T08:22:44.572Z,5.60
2019-02-02T08:25:15.686Z,5.70
2019-02-02T08:27:46.021Z,5.70
2019-02-02T08:30:21.635Z,5.70
2019-02-02T08:32:51.780Z,5.70
2019-02-02T08:35:22.544Z,5.70
2019-02-02T08:37:52.724Z,5.80
2019-02-02T08:40:23.394Z,5.80
2019-02-02T08:42:53.773Z,5.80
2019-02-02T08:45:24.344Z,5.80
2019-02-02T08:47:54.615Z,5.80
2019-02-02T08:50:30.255Z,5.80
2019-02-02T08:53:00.980Z,5.80
2019-02-02T08:55:32.256Z,5.90
2019-02-02T08:58:02.546Z,5.90
2019-02-02T09:00:33.228Z,5.80
2019-02-02T09:03:03.466Z,5.80
2019-02-02T09:05:33.897Z,5.90
2019-02-02T09:08:05.413Z,5.90
2019-02-02T09:10:35.561Z,5.90
2019-02-02T09:13:05.989Z,6.00
2019-02-02T09:15:36.625Z,6.00
2019-02-02T09:18:06.897Z,5.90
2019-02-02T09:20:37.468Z,5.90
2019-02-02T09:23:07.689Z,6.00
2019-02-02T09:25:38.225Z,6.00
2019-02-02T09:28:08.864Z,6.00
2019-02-02T09:30:39.408Z,6.10
2019-02-02T09:33:09.654Z,6.10
2019-02-02T09:35:39.916Z,6.40
2019-02-02T09:38:12.411Z,5.60
2019-02-02T09:40:42.918Z,6.40
2019-02-02T09:43:13.160Z,6.60
2019-02-02T09:45:43.448Z,6.60
2019-02-02T09:48:13.542Z,6.60
2019-02-02T09:50:44.491Z,6.60
2019-02-02T09:53:14.635Z,6.70
2019-02-02T09:55:45.244Z,6.90
2019-02-02T09:58:15.313Z,7.00
2019-02-02T10:00:45.832Z,7.00
2019-02-02T10:03:16.066Z,7.10
2019-02-02T10:05:46.317Z,7.10
2019-02-02T10:08:16.925Z,7.20
2019-02-02T10:10:47.109Z,7.20
2019-02-02T10:15:48.909Z,7.40
2019-02-02T10:18:19.336Z,7.40
2019-02-02T10:21:03.338Z,7.50
2019-02-02T10:23:23.833Z,7.50
2019-02-02T10:25:56.738Z,7.60
2019-02-02T10:28:32.096Z,7.60
2019-02-02T10:31:02.719Z,7.70
2019-02-02T10:33:32.947Z,7.80
2019-02-02T10:36:03.229Z,7.90
2019-02-02T10:38:34.483Z,7.90
2019-02-02T10:41:05.116Z,7.90
2019-02-02T10:43:35.556Z,6.20
2019-02-02T10:46:06.111Z,8.10
2019-02-02T10:48:36.299Z,7.90
2019-02-02T10:51:08.069Z,7.80
2019-02-02T10:53:38.309Z,8.00
2019-02-02T10:56:08.587Z,8.00
2019-02-02T10:58:38.998Z,8.20
2019-02-02T11:01:09.742Z,8.40
2019-02-02T11:03:41.031Z,8.50
2019-02-02T11:06:11.648Z,8.50
2019-02-02T11:08:43.720Z,8.60
2019-02-02T11:11:14.828Z,8.40
2019-02-02T11:13:45.196Z,8.40
2019-02-02T11:16:15.706Z,8.30
2019-02-02T11:18:46.084Z,8.30
2019-02-02T11:21:16.422Z,8.20
2019-02-02T11:23:47.099Z,8.10
2019-02-02T11:26:18.417Z,8.00
2019-02-02T11:28:48.799Z,7.90
2019-02-02T11:31:19.000Z,8.00
2019-02-02T11:33:49.237Z,7.90
2019-02-02T11:36:19.791Z,7.90
2019-02-02T11:38:51.334Z,7.80
2019-02-02T11:41:21.969Z,7.80
2019-02-02T11:43:52.168Z,7.90
2019-02-02T11:46:22.367Z,8.00
2019-02-02T11:48:52.892Z,8.10
2019-02-02T11:51:23.036Z,8.10
2019-02-02T11:53:53.200Z,8.10
2019-02-02T11:56:23.943Z,8.20
2019-02-02T11:58:54.274Z,8.20
2019-02-02T12:01:24.828Z,8.20
2019-02-02T12:03:55.085Z,8.20
2019-02-02T12:06:25.776Z,8.20
2019-02-02T12:08:56.078Z,8.30
2019-02-02T12:11:26.441Z,8.30
2019-02-02T12:13:57.624Z,8.30
2019-02-02T12:16:27.704Z,8.40
2019-02-02T12:18:57.884Z,8.30
2019-02-02T12:21:28.048Z,8.20
2019-02-02T12:23:58.326Z,8.20
2019-02-02T12:26:28.972Z,8.20
2019-02-02T12:29:03.853Z,8.20
2019-02-02T12:31:35.524Z,8.20
2019-02-02T12:34:06.138Z,8.10
2019-02-02T12:36:37.724Z,8.10
2019-02-02T12:39:10.918Z,8.00
2019-02-02T12:41:41.233Z,7.90
2019-02-02T12:44:11.534Z,7.90
2019-02-02T12:46:41.731Z,7.90
2019-02-02T12:49:12.849Z,7.80
2019-02-02T12:51:43.383Z,7.90
2019-02-02T12:54:14.107Z,7.80
2019-02-02T12:56:44.333Z,7.90
2019-02-02T12:59:38.548Z,7.80
2019-02-02T13:02:08.822Z,7.80
2019-02-02T13:04:38.994Z,7.90
2019-02-02T13:07:11.989Z,7.90
2019-02-02T13:09:42.697Z,7.90
2019-02-02T13:12:13.174Z,8.00
2019-02-02T13:14:43.335Z,8.00
2019-02-02T13:17:13.443Z,7.90
2019-02-02T13:19:45.010Z,7.90
2019-02-02T13:22:15.176Z,7.90
2019-02-02T13:24:47.151Z,7.80
2019-02-02T13:27:19.239Z,7.80
2019-02-02T13:29:52.164Z,7.80
2019-02-02T13:32:21.683Z,7.40
2019-02-02T13:34:51.935Z,7.70
2019-02-02T13:37:22.430Z,7.70
2019-02-02T13:39:52.648Z,7.60
2019-02-02T13:42:23.044Z,7.60
2019-02-02T13:44:53.318Z,7.50
2019-02-02T13:49:52.948Z,7.30
2019-02-02T13:52:23.649Z,7.30
2019-02-02T13:54:55.810Z,7.30
2019-02-02T13:57:26.034Z,7.30
2019-02-02T13:59:57.416Z,7.30
2019-02-02T14:02:28.808Z,7.30
2019-02-02T14:04:59.307Z,7.30
2019-02-02T14:07:29.733Z,7.40
2019-02-02T14:09:59.960Z,7.40
2019-02-02T14:12:30.200Z,7.40
2019-02-02T14:15:00.518Z,7.40
2019-02-02T14:17:30.732Z,7.30
2019-02-02T14:20:00.845Z,7.30
2019-02-02T14:25:01.942Z,7.20
2019-02-02T14:27:32.641Z,7.20
2019-02-02T14:30:02.931Z,7.10
2019-02-02T14:32:36.551Z,7.10
2019-02-02T14:35:07.096Z,7.00
2019-02-02T14:37:37.714Z,7.00
2019-02-02T14:40:08.582Z,7.00
2019-02-02T14:42:38.816Z,7.00
2019-02-02T14:45:11.281Z,7.00
2019-02-02T14:47:41.669Z,7.00
2019-02-02T14:50:18.857Z,6.90
2019-02-02T14:52:49.691Z,6.80
2019-02-02T14:55:22.609Z,6.80
2019-02-02T14:57:52.840Z,6.60
2019-02-02T15:00:24.915Z,6.60
2019-02-02T15:02:55.181Z,6.60
2019-02-02T15:05:25.453Z,6.40
2019-02-02T15:07:55.959Z,6.40
2019-02-02T15:10:26.257Z,5.70
2019-02-02T15:12:56.493Z,6.40
2019-02-02T15:15:26.749Z,6.40
2019-02-02T15:17:56.949Z,6.40
2019-02-02T15:20:29.425Z,6.40
2019-02-02T15:23:00.337Z,6.40
2019-02-02T15:25:30.746Z,6.40
2019-02-02T15:28:01.998Z,6.40
2019-02-02T15:30:33.019Z,6.40
2019-02-02T15:33:03.336Z,6.40
2019-02-02T15:35:33.536Z,6.40
2019-02-02T15:38:03.901Z,6.30
2019-02-02T15:40:34.163Z,6.30
2019-02-02T15:43:06.561Z,6.30
2019-02-02T15:45:36.730Z,6.30
2019-02-02T15:48:07.066Z,6.20
2019-02-02T15:50:37.371Z,6.20
2019-02-02T15:53:07.639Z,8.00
2019-02-02T15:55:37.878Z,6.10
2019-02-02T15:58:10.242Z,6.10
2019-02-02T16:00:40.480Z,6.10
2019-02-02T16:03:11.517Z,6.00
2019-02-02T16:05:43.154Z,5.90
2019-02-02T16:08:16.160Z,5.90
2019-02-02T16:10:46.476Z,5.80
2019-02-02T16:13:16.708Z,5.70
2019-02-02T16:15:47.336Z,5.70
2019-02-02T16:18:17.553Z,5.70
2019-02-02T16:20:47.829Z,5.70
2019-02-02T16:23:17.929Z,5.80
2019-02-02T16:25:48.862Z,5.90
2019-02-02T16:28:19.529Z,5.90
2019-02-02T16:30:51.784Z,6.00
2019-02-02T16:33:22.196Z,5.90
2019-02-02T16:35:52.386Z,5.80
2019-02-02T16:38:22.685Z,5.80
2019-02-02T16:40:53.709Z,5.70
2019-02-02T16:43:24.418Z,5.70
2019-02-02T16:45:54.505Z,5.80
2019-02-02T16:48:27.570Z,5.80
2019-02-02T16:50:57.958Z,5.70
2019-02-02T16:53:28.639Z,5.80
2019-02-02T16:56:00.594Z,5.80
2019-02-02T16:58:30.689Z,5.90
2019-02-02T17:03:30.486Z,6.00
2019-02-02T17:06:03.025Z,6.20
2019-02-02T17:08:33.342Z,6.40
2019-02-02T17:11:03.951Z,6.90
2019-02-02T17:13:35.411Z,6.40
2019-02-02T17:16:08.090Z,6.20
2019-02-02T17:18:38.199Z,6.20
2019-02-02T17:21:08.524Z,6.10
2019-02-02T17:23:39.048Z,6.10
2019-02-02T17:26:09.556Z,6.10
2019-02-02T17:28:40.025Z,6.10
2019-02-02T17:31:11.482Z,6.60
2019-02-02T17:33:42.285Z,6.20
2019-02-02T17:36:13.436Z,6.30
2019-02-02T17:38:44.025Z,6.40
2019-02-02T17:41:14.377Z,6.40
2019-02-02T17:43:44.957Z,6.50
2019-02-02T17:46:15.445Z,6.50
2019-02-02T17:48:45.796Z,6.40
2019-02-02T17:51:16.091Z,6.40
2019-02-02T17:53:46.628Z,6.40
2019-02-02T17:56:16.916Z,6.50
2019-02-02T17:58:48.285Z,6.50
2019-02-02T18:01:18.630Z,6.60
2019-02-02T18:03:49.239Z,6.60
2019-02-02T18:06:19.425Z,6.60
2019-02-02T18:08:50.614Z,6.70
2019-02-02T18:11:20.801Z,6.70
2019-02-02T18:13:51.657Z,6.70
2019-02-02T18:16:21.849Z,6.70
2019-02-02T18:18:52.405Z,6.70
2019-02-02T18:21:22.596Z,6.70
2019-02-02T18:23:52.890Z,6.80
2019-02-02T18:26:25.881Z,6.70
2019-02-02T18:28:56.360Z,6.70
2019-02-02T18:31:26.594Z,6.70
2019-02-02T18:34:02.004Z,6.60
2019-02-02T18:36:32.498Z,6.60
2019-02-02T18:39:05.581Z,6.60
2019-02-02T18:41:35.766Z,6.50
2019-02-02T18:44:06.016Z,6.50
2019-02-02T18:46:36.297Z,6.40
2019-02-02T18:49:08.750Z,6.40
2019-02-02T18:51:40.062Z,6.40
2019-02-02T18:54:11.836Z,6.40
2019-02-02T18:56:42.101Z,6.40
2019-02-02T18:59:14.049Z,6.50
2019-02-02T19:01:44.620Z,6.50
2019-02-02T19:04:15.278Z,6.50
2019-02-02T19:06:45.375Z,6.50
2019-02-02T19:09:15.924Z,6.60
2019-02-02T19:11:46.071Z,6.60
2019-02-02T19:14:16.634Z,6.60
2019-02-02T19:16:46.895Z,6.70
2019-02-02T19:19:17.023Z,6.70
2019-02-02T19:21:48.686Z,6.70
2019-02-02T19:24:18.970Z,6.70
2019-02-02T19:26:51.621Z,6.80
2019-02-02T19:29:22.230Z,6.70
2019-02-02T19:31:52.388Z,6.80
2019-02-02T19:34:22.564Z,6.80
2019-02-02T19:36:52.797Z,6.80
2019-02-02T19:39:23.052Z,6.80
2019-02-02T19:41:53.566Z,6.80
2019-02-02T19:44:23.889Z,6.80
2019-02-02T19:46:54.324Z,6.80
2019-02-02T19:49:26.481Z,6.90
2019-02-02T19:51:56.739Z,6.90
2019-02-02T19:54:27.188Z,6.80
2019-02-02T19:56:57.972Z,6.80
2019-02-02T19:59:28.617Z,6.80
2019-02-02T20:02:00.268Z,6.80
2019-02-02T20:04:30.440Z,6.80
2019-02-02T20:07:00.678Z,6.70
2019-02-02T20:09:30.908Z,6.60
2019-02-02T20:12:02.364Z,6.70
2019-02-02T20:14:33.726Z,6.70
2019-02-02T20:17:04.006Z,6.70
2019-02-02T20:19:34.868Z,6.60
2019-02-02T20:24:35.035Z,6.60
2019-02-02T20:27:06.778Z,6.60
2019-02-02T20:29:37.037Z,6.70
2019-02-02T20:32:07.896Z,6.80
2019-02-02T20:34:38.254Z,6.80
2019-02-02T20:37:08.586Z,6.90
2019-02-02T20:39:39.007Z,6.80
2019-02-02T20:42:09.307Z,6.90
2019-02-02T20:44:40.573Z,6.90
2019-02-02T20:47:10.911Z,6.80
2019-02-02T20:49:41.525Z,6.80
2019-02-02T20:52:12.045Z,6.80
2019-02-02T20:54:42.699Z,6.80
2019-02-02T20:57:12.928Z,6.70
2019-02-02T20:59:43.545Z,7.00
2019-02-02T21:02:13.660Z,6.70
2019-02-02T21:04:46.984Z,6.70
2019-02-02T21:07:17.197Z,6.70
2019-02-02T21:09:47.495Z,6.70
2019-02-02T21:12:17.759Z,6.60
2019-02-02T21:14:48.424Z,6.50
2019-02-02T21:17:18.569Z,6.50
2019-02-02T21:19:49.007Z,6.40
2019-02-02T21:22:19.427Z,6.40
2019-02-02T21:24:49.594Z,6.40
2019-02-02T21:27:21.077Z,6.30
2019-02-02T21:29:51.658Z,6.30
2019-02-02T21:32:21.909Z,6.30
2019-02-02T21:34:52.090Z,6.30
2019-02-02T21:37:22.377Z,6.30
2019-02-02T21:39:52.520Z,6.30
2019-02-02T21:42:22.753Z,6.50
2019-02-02T21:44:53.339Z,6.40
2019-02-02T21:47:23.609Z,6.40
2019-02-02T21:49:53.737Z,6.40
2019-02-02T21:52:25.003Z,6.40
2019-02-02T21:54:55.469Z,6.30
2019-02-02T21:57:25.960Z,6.30
2019-02-02T21:59:56.532Z,6.30
2019-02-02T22:02:26.753Z,6.20
2019-02-02T22:04:57.397Z,6.20
2019-02-02T22:07:27.647Z,6.10
2019-02-02T22:09:58.199Z,6.10
2019-02-02T22:12:28.465Z,6.10
2019-02-02T22:14:59.026Z,6.10
2019-02-02T22:17:29.782Z,6.10
2019-02-02T22:19:59.952Z,6.10
2019-02-02T22:22:30.108Z,6.10
2019-02-02T22:25:01.108Z,6.10
2019-02-02T22:27:32.366Z,6.10
2019-02-02T22:30:03.315Z,6.10
2019-02-02T22:32:33.474Z,6.00
2019-02-02T22:35:03.996Z,6.00
2019-02-02T22:37:34.516Z,6.00
2019-02-02T22:40:05.911Z,6.00
2019-02-02T22:42:36.670Z,6.00
2019-02-02T22:45:11.550Z,6.00
2019-02-02T22:47:41.764Z,6.00
2019-02-02T22:50:14.326Z,6.00
2019-02-02T22:52:45.269Z,5.90
2019-02-02T22:55:18.155Z,5.90
2019-02-02T22:57:48.277Z,5.90
2019-02-02T23:00:58.056Z,5.90
2019-02-02T23:03:40.938Z,5.90
2019-02-02T23:06:41.357Z,5.90
2019-02-02T23:09:43.076Z,5.90
2019-02-02T23:13:12.801Z,6.00
2019-02-02T23:16:26.900Z,6.00
2019-02-02T23:18:58.022Z,6.00
2019-02-02T23:21:29.778Z,6.00
2019-02-02T23:24:00.075Z,6.00
2019-02-02T23:26:30.803Z,6.00
2019-02-02T23:29:02.194Z,6.00
2019-02-02T23:31:32.780Z,6.50
2019-02-02T23:34:03.050Z,6.10
2019-02-02T23:36:33.167Z,6.10
2019-02-02T23:39:03.716Z,6.10
2019-02-02T23:41:33.951Z,6.10
2019-02-02T23:44:04.016Z,6.10
2019-02-02T23:46:34.599Z,6.20
2019-02-02T23:49:04.819Z,6.20
2019-02-02T23:51:34.911Z,6.20
2019-02-02T23:54:05.239Z,6.20
2019-02-02T23:56:35.807Z,6.30
2019-02-02T23:59:06.008Z,6.30
